createdAt,value
2022-10-06T00:00:35.567Z,1016.91
2022-10-06T00:01:35.621Z,1016.91
2022-10-06T00:02:35.721Z,1016.86
2022-10-06T00:03:35.649Z,1016.90
2022-10-06T00:04:35.679Z,1016.88
2022-10-06T00:05:35.709Z,1016.89
2022-10-06T00:06:35.734Z,1017.05
2022-10-06T00:07:35.767Z,1017.05
2022-10-06T00:08:35.793Z,1017.16
2022-10-06T00:09:35.816Z,1017.10
2022-10-06T00:10:35.844Z,1017.17
2022-10-06T00:11:35.890Z,1017.15
2022-10-06T00:12:35.900Z,1017.07
2022-10-06T00:13:35.926Z,1017.08
2022-10-06T00:14:35.954Z,1017.03
2022-10-06T00:15:36.030Z,1017.14
2022-10-06T00:16:36.011Z,1017.11
2022-10-06T00:17:36.040Z,1017.17
2022-10-06T00:18:36.065Z,1017.15
2022-10-06T00:19:36.093Z,1017.20
2022-10-06T00:20:36.121Z,1017.23
2022-10-06T00:21:36.146Z,1017.23
2022-10-06T00:22:36.176Z,1017.32
2022-10-06T00:23:36.201Z,1017.31
2022-10-06T00:24:36.231Z,1017.40
2022-10-06T00:25:36.257Z,1017.42
2022-10-06T00:26:36.286Z,1017.33
2022-10-06T00:27:36.330Z,1017.38
2022-10-06T00:28:36.443Z,1017.38
2022-10-06T00:29:36.367Z,1017.34
2022-10-06T00:30:36.397Z,1017.34
2022-10-06T00:31:36.424Z,1017.25
2022-10-06T00:32:36.452Z,1017.34
2022-10-06T00:33:36.479Z,1017.41
2022-10-06T00:34:36.512Z,1017.36
2022-10-06T00:35:36.533Z,1017.35
2022-10-06T00:36:36.563Z,1017.45
2022-10-06T00:37:36.590Z,1017.43
2022-10-06T00:38:36.617Z,1017.40
2022-10-06T00:39:36.644Z,1017.42
2022-10-06T00:40:36.674Z,1017.39
2022-10-06T00:41:36.698Z,1017.41
2022-10-06T00:42:36.729Z,1017.39
2022-10-06T00:43:36.772Z,1017.41
2022-10-06T00:44:36.784Z,1017.47
2022-10-06T00:45:36.811Z,1017.51
2022-10-06T00:46:36.916Z,1017.49
2022-10-06T00:47:36.865Z,1017.56
2022-10-06T00:48:36.896Z,1017.52
2022-10-06T00:49:36.922Z,1017.52
2022-10-06T00:50:36.951Z,1017.56
2022-10-06T00:51:36.976Z,1017.49
2022-10-06T00:52:37.006Z,1017.58
2022-10-06T00:53:37.032Z,1017.61
2022-10-06T00:54:37.061Z,1017.57
2022-10-06T00:55:37.095Z,1017.56
2022-10-06T00:56:37.117Z,1017.55
2022-10-06T00:57:37.145Z,1017.51
2022-10-06T00:58:37.170Z,1017.56
2022-10-06T00:59:37.219Z,1017.58
2022-10-06T01:00:37.228Z,1017.60
2022-10-06T01:01:37.293Z,1017.66
2022-10-06T01:02:37.306Z,1017.66
2022-10-06T01:03:37.311Z,1017.73
2022-10-06T01:04:37.339Z,1017.64
2022-10-06T01:05:37.365Z,1017.68
2022-10-06T01:06:37.394Z,1017.63
2022-10-06T01:07:37.421Z,1017.63
2022-10-06T01:08:37.451Z,1017.67
2022-10-06T01:09:37.477Z,1017.65
2022-10-06T01:10:37.516Z,1017.67
2022-10-06T01:11:37.532Z,1017.70
2022-10-06T01:12:37.561Z,1017.75
2022-10-06T01:13:37.589Z,1017.71
2022-10-06T01:14:37.618Z,1017.78
2022-10-06T01:15:37.725Z,1017.80
2022-10-06T01:16:37.675Z,1017.91
2022-10-06T01:17:37.701Z,1017.87
2022-10-06T01:18:37.728Z,1017.86
2022-10-06T01:19:37.754Z,1017.92
2022-10-06T01:20:37.784Z,1017.93
2022-10-06T01:21:37.810Z,1017.94
2022-10-06T01:22:37.839Z,1017.90
2022-10-06T01:23:37.867Z,1017.99
2022-10-06T01:24:37.895Z,1017.94
2022-10-06T01:25:37.923Z,1017.97
2022-10-06T01:26:37.950Z,1017.93
2022-10-06T01:27:37.979Z,1017.95
2022-10-06T01:28:38.070Z,1017.99
2022-10-06T01:29:38.032Z,1017.97
2022-10-06T01:30:38.061Z,1018.00
2022-10-06T01:31:38.107Z,1018.00
2022-10-06T01:32:38.117Z,1018.04
2022-10-06T01:33:38.144Z,1018.12
2022-10-06T01:34:38.172Z,1018.08
2022-10-06T01:35:38.201Z,1018.17
2022-10-06T01:36:38.230Z,1018.10
2022-10-06T01:37:38.255Z,1018.10
2022-10-06T01:38:38.285Z,1018.17
2022-10-06T01:39:38.309Z,1018.15
2022-10-06T01:40:38.340Z,1018.19
2022-10-06T01:41:38.365Z,1018.16
2022-10-06T01:42:38.401Z,1018.18
2022-10-06T01:43:38.422Z,1018.19
2022-10-06T01:44:38.450Z,1018.24
2022-10-06T01:45:38.477Z,1018.28
2022-10-06T01:46:38.550Z,1018.30
2022-10-06T01:47:38.549Z,1018.31
2022-10-06T01:48:38.562Z,1018.35
2022-10-06T01:49:38.586Z,1018.33
2022-10-06T01:50:38.615Z,1018.32
2022-10-06T01:51:38.642Z,1018.32
2022-10-06T01:52:38.672Z,1018.24
2022-10-06T01:53:38.695Z,1018.26
2022-10-06T01:54:38.727Z,1018.34
2022-10-06T01:55:38.750Z,1018.35
2022-10-06T01:56:38.781Z,1018.38
2022-10-06T01:57:38.806Z,1018.39
2022-10-06T01:58:38.834Z,1018.36
2022-10-06T01:59:38.861Z,1018.36
2022-10-06T02:00:38.890Z,1018.37
2022-10-06T02:01:38.967Z,1018.40
2022-10-06T02:02:38.943Z,1018.43
2022-10-06T02:03:38.988Z,1018.46
2022-10-06T02:04:38.998Z,1018.47
2022-10-06T02:05:39.024Z,1018.50
2022-10-06T02:06:39.502Z,1018.45
2022-10-06T02:07:39.087Z,1018.44
2022-10-06T02:08:39.107Z,1018.51
2022-10-06T02:09:39.132Z,1018.54
2022-10-06T02:10:39.163Z,1018.51
2022-10-06T02:11:39.186Z,1018.51
2022-10-06T02:12:39.218Z,1018.47
2022-10-06T02:13:39.242Z,1018.55
2022-10-06T02:14:39.269Z,1018.55
2022-10-06T02:15:39.334Z,1018.52
2022-10-06T02:16:39.325Z,1018.55
2022-10-06T02:17:39.351Z,1018.57
2022-10-06T02:18:39.378Z,1018.52
2022-10-06T02:19:39.421Z,1018.59
2022-10-06T02:20:39.430Z,1018.58
2022-10-06T02:21:39.460Z,1018.61
2022-10-06T02:22:39.501Z,1018.60
2022-10-06T02:23:39.513Z,1018.66
2022-10-06T02:24:39.539Z,1018.73
2022-10-06T02:25:39.567Z,1018.78
2022-10-06T02:26:39.596Z,1018.73
2022-10-06T02:27:39.629Z,1018.80
2022-10-06T02:28:39.711Z,1018.79
2022-10-06T02:29:39.679Z,1018.83
2022-10-06T02:30:39.702Z,1018.84
2022-10-06T02:31:39.777Z,1018.85
2022-10-06T02:32:39.756Z,1018.86
2022-10-06T02:33:39.785Z,1018.86
2022-10-06T02:34:39.815Z,1018.83
2022-10-06T02:35:39.856Z,1018.85
2022-10-06T02:36:39.863Z,1018.84
2022-10-06T02:37:39.893Z,1018.90
2022-10-06T02:38:39.918Z,1018.81
2022-10-06T02:39:39.947Z,1018.82
2022-10-06T02:40:39.972Z,1018.95
2022-10-06T02:41:40.001Z,1018.98
2022-10-06T02:42:40.026Z,1019.00
2022-10-06T02:43:40.054Z,1018.99
2022-10-06T02:44:40.080Z,1019.01
2022-10-06T02:45:40.108Z,1019.06
2022-10-06T02:46:40.175Z,1019.04
2022-10-06T02:47:40.162Z,1019.02
2022-10-06T02:48:40.191Z,1019.07
2022-10-06T02:49:40.216Z,1019.04
2022-10-06T02:50:40.240Z,1019.06
2022-10-06T02:51:40.288Z,1019.10
2022-10-06T02:52:40.296Z,1019.11
2022-10-06T02:53:40.325Z,1019.12
2022-10-06T02:54:40.351Z,1019.15
2022-10-06T02:55:40.377Z,1019.13
2022-10-06T02:56:40.403Z,1019.10
2022-10-06T02:57:40.432Z,1019.13
2022-10-06T02:58:40.457Z,1019.23
2022-10-06T02:59:40.484Z,1019.19
2022-10-06T03:00:40.511Z,1019.25
2022-10-06T03:01:40.660Z,1019.27
2022-10-06T03:02:40.675Z,1019.22
2022-10-06T03:03:40.593Z,1019.28
2022-10-06T03:04:40.617Z,1019.34
2022-10-06T03:05:40.646Z,1019.38
2022-10-06T03:06:40.670Z,1019.38
2022-10-06T03:07:40.720Z,1019.47
2022-10-06T03:08:40.726Z,1019.45
2022-10-06T03:09:40.753Z,1019.44
2022-10-06T03:10:40.779Z,1019.40
2022-10-06T03:11:40.806Z,1019.44
2022-10-06T03:12:40.833Z,1019.42
2022-10-06T03:13:40.862Z,1019.44
2022-10-06T03:14:40.886Z,1019.51
2022-10-06T03:15:40.914Z,1019.47
2022-10-06T03:16:40.939Z,1019.50
2022-10-06T03:17:40.969Z,1019.52
2022-10-06T03:18:40.993Z,1019.57
2022-10-06T03:19:41.026Z,1019.59
2022-10-06T03:20:41.046Z,1019.61
2022-10-06T03:21:41.077Z,1019.63
2022-10-06T03:22:41.101Z,1019.65
2022-10-06T03:23:41.149Z,1019.67
2022-10-06T03:24:41.154Z,1019.65
2022-10-06T03:25:41.184Z,1019.65
2022-10-06T03:26:41.211Z,1019.66
2022-10-06T03:27:41.237Z,1019.70
2022-10-06T03:28:41.304Z,1019.70
2022-10-06T03:29:41.290Z,1019.69
2022-10-06T03:30:41.314Z,1019.76
2022-10-06T03:31:41.436Z,1019.80
2022-10-06T03:32:41.368Z,1019.86
2022-10-06T03:33:41.396Z,1019.90
2022-10-06T03:34:41.425Z,1019.88
2022-10-06T03:35:41.450Z,1019.91
2022-10-06T03:36:41.474Z,1019.92
2022-10-06T03:37:41.503Z,1019.90
2022-10-06T03:38:41.528Z,1019.91
2022-10-06T03:39:41.582Z,1019.89
2022-10-06T03:40:41.580Z,1019.94
2022-10-06T03:41:41.609Z,1019.98
2022-10-06T03:42:41.634Z,1019.98
2022-10-06T03:43:41.662Z,1019.99
2022-10-06T03:44:41.687Z,1020.01
2022-10-06T03:45:41.716Z,1020.00
2022-10-06T03:46:41.806Z,1020.02
2022-10-06T03:47:41.769Z,1020.08
2022-10-06T03:48:41.796Z,1020.08
2022-10-06T03:49:41.822Z,1020.10
2022-10-06T03:50:41.846Z,1020.15
2022-10-06T03:51:41.875Z,1020.15
2022-10-06T03:52:41.901Z,1020.16
2022-10-06T03:53:41.928Z,1020.20
2022-10-06T03:54:41.955Z,1020.22
2022-10-06T03:55:41.999Z,1020.24
2022-10-06T03:56:42.008Z,1020.23
2022-10-06T03:57:42.035Z,1020.21
2022-10-06T03:58:42.057Z,1020.21
2022-10-06T03:59:42.087Z,1020.24
2022-10-06T04:00:42.160Z,1020.27
2022-10-06T04:01:42.200Z,1020.23
2022-10-06T04:02:42.164Z,1020.34
2022-10-06T04:03:42.191Z,1020.28
2022-10-06T04:04:42.217Z,1020.32
2022-10-06T04:05:42.246Z,1020.40
2022-10-06T04:06:42.270Z,1020.42
2022-10-06T04:07:42.299Z,1020.42
2022-10-06T04:08:42.323Z,1020.46
2022-10-06T04:09:42.351Z,1020.50
2022-10-06T04:10:42.376Z,1020.52
2022-10-06T04:11:42.426Z,1020.52
2022-10-06T04:12:42.429Z,1020.57
2022-10-06T04:13:42.458Z,1020.50
2022-10-06T04:14:42.481Z,1020.54
2022-10-06T04:15:42.510Z,1020.56
2022-10-06T04:16:42.614Z,1020.58
2022-10-06T04:17:42.563Z,1020.60
2022-10-06T04:18:42.591Z,1020.64
2022-10-06T04:19:42.620Z,1020.65
2022-10-06T04:20:42.644Z,1020.65
2022-10-06T04:21:42.672Z,1020.68
2022-10-06T04:22:42.695Z,1020.67
2022-10-06T04:23:42.724Z,1020.75
2022-10-06T04:24:42.749Z,1020.73
2022-10-06T04:25:42.777Z,1020.72
2022-10-06T04:26:42.800Z,1020.77
2022-10-06T04:27:42.848Z,1020.74
2022-10-06T04:28:42.884Z,1020.77
2022-10-06T04:29:42.885Z,1020.79
2022-10-06T04:30:42.906Z,1020.84
2022-10-06T04:31:42.951Z,1020.83
2022-10-06T04:32:42.960Z,1020.78
2022-10-06T04:33:42.991Z,1020.81
2022-10-06T04:34:43.015Z,1020.81
2022-10-06T04:35:43.041Z,1020.85
2022-10-06T04:36:43.066Z,1020.87
2022-10-06T04:37:43.095Z,1020.96
2022-10-06T04:38:43.120Z,1021.04
2022-10-06T04:39:43.153Z,1021.01
2022-10-06T04:40:43.170Z,1021.00
2022-10-06T04:41:43.200Z,1020.99
2022-10-06T04:42:43.226Z,1020.99
2022-10-06T04:43:43.270Z,1021.03
2022-10-06T04:44:43.277Z,1021.07
2022-10-06T04:45:43.353Z,1021.08
2022-10-06T04:46:44.823Z,1021.11
2022-10-06T04:47:43.357Z,1021.11
2022-10-06T04:48:43.383Z,1021.12
2022-10-06T04:49:43.410Z,1021.20
2022-10-06T04:50:43.434Z,1021.22
2022-10-06T04:51:43.462Z,1021.18
2022-10-06T04:52:43.488Z,1021.20
2022-10-06T04:53:43.515Z,1021.22
2022-10-06T04:54:44.753Z,1021.25
2022-10-06T04:55:43.565Z,1021.19
2022-10-06T04:56:43.598Z,1021.20
2022-10-06T04:57:43.625Z,1021.26
2022-10-06T04:58:43.653Z,1021.22
2022-10-06T04:59:43.736Z,1021.28
2022-10-06T05:00:43.747Z,1021.34
2022-10-06T05:01:43.729Z,1021.32
2022-10-06T05:02:43.851Z,1021.31
2022-10-06T05:03:43.778Z,1021.33
2022-10-06T05:04:43.802Z,1021.35
2022-10-06T05:05:43.835Z,1021.37
2022-10-06T05:06:43.854Z,1021.40
2022-10-06T05:07:43.880Z,1021.38
2022-10-06T05:08:43.908Z,1021.41
2022-10-06T05:09:43.936Z,1021.44
2022-10-06T05:10:43.958Z,1021.42
2022-10-06T05:11:43.987Z,1021.42
2022-10-06T05:12:44.142Z,1021.49
2022-10-06T05:13:44.040Z,1021.46
2022-10-06T05:14:44.063Z,1021.50
2022-10-06T05:15:44.110Z,1021.55
2022-10-06T05:16:44.189Z,1021.57
2022-10-06T05:17:46.765Z,1021.56
2022-10-06T05:18:44.169Z,1021.59
2022-10-06T05:19:44.196Z,1021.62
2022-10-06T05:20:44.221Z,1021.62
2022-10-06T05:21:44.249Z,1021.61
2022-10-06T05:22:44.271Z,1021.68
2022-10-06T05:23:44.301Z,1021.64
2022-10-06T05:24:44.329Z,1021.67
2022-10-06T05:25:44.353Z,1021.73
2022-10-06T05:26:44.379Z,1021.68
2022-10-06T05:27:44.406Z,1021.70
2022-10-06T05:28:44.501Z,1021.75
2022-10-06T05:29:44.459Z,1021.71
2022-10-06T05:30:44.483Z,1021.74
2022-10-06T05:31:44.603Z,1021.75
2022-10-06T05:32:44.533Z,1021.74
2022-10-06T05:33:44.563Z,1021.78
2022-10-06T05:34:44.590Z,1021.77
2022-10-06T05:35:44.616Z,1021.79
2022-10-06T05:36:44.643Z,1021.80
2022-10-06T05:37:44.668Z,1021.81
2022-10-06T05:38:44.691Z,1021.86
2022-10-06T05:39:44.721Z,1021.86
2022-10-06T05:40:44.745Z,1021.90
2022-10-06T05:41:44.772Z,1021.86
2022-10-06T05:42:44.833Z,1021.87
2022-10-06T05:43:44.824Z,1021.96
2022-10-06T05:44:44.848Z,1021.94
2022-10-06T05:45:44.917Z,1021.96
2022-10-06T05:46:44.902Z,1022.01
2022-10-06T05:47:44.978Z,1022.01
2022-10-06T05:48:44.955Z,1022.04
2022-10-06T05:49:44.979Z,1022.04
2022-10-06T05:50:45.003Z,1022.09
2022-10-06T05:51:45.032Z,1022.07
2022-10-06T05:52:45.054Z,1022.11
2022-10-06T05:53:45.083Z,1022.12
2022-10-06T05:54:45.109Z,1022.11
2022-10-06T05:55:45.134Z,1022.17
2022-10-06T05:56:45.160Z,1022.19
2022-10-06T05:57:45.191Z,1022.18
2022-10-06T05:58:45.212Z,1022.20
2022-10-06T05:59:47.861Z,1022.23
2022-10-06T06:00:45.264Z,1022.26
2022-10-06T06:01:45.458Z,1022.29
2022-10-06T06:02:45.405Z,1022.32
2022-10-06T06:03:45.364Z,1022.37
2022-10-06T06:04:45.370Z,1022.44
2022-10-06T06:05:45.393Z,1022.41
2022-10-06T06:06:45.418Z,1022.46
2022-10-06T06:07:45.445Z,1022.48
2022-10-06T06:08:45.472Z,1022.46
2022-10-06T06:09:48.120Z,1022.48
2022-10-06T06:10:45.521Z,1022.48
2022-10-06T06:11:45.548Z,1022.56
2022-10-06T06:12:45.572Z,1022.55
2022-10-06T06:13:45.602Z,1022.58
2022-10-06T06:14:45.625Z,1022.62
2022-10-06T06:15:45.652Z,1022.62
2022-10-06T06:16:45.735Z,1022.62
2022-10-06T06:17:45.706Z,1022.62
2022-10-06T06:18:45.728Z,1022.65
2022-10-06T06:19:45.775Z,1022.63
2022-10-06T06:20:45.782Z,1022.67
2022-10-06T06:21:45.808Z,1022.65
2022-10-06T06:22:45.831Z,1022.60
2022-10-06T06:23:45.858Z,1022.63
2022-10-06T06:24:45.887Z,1022.66
2022-10-06T06:25:45.912Z,1022.63
2022-10-06T06:26:45.935Z,1022.66
2022-10-06T06:27:45.966Z,1022.66
2022-10-06T06:28:46.017Z,1022.67
2022-10-06T06:29:46.014Z,1022.69
2022-10-06T06:30:46.109Z,1022.67
2022-10-06T06:31:46.233Z,1022.70
2022-10-06T06:32:46.091Z,1022.73
2022-10-06T06:33:46.117Z,1022.74
2022-10-06T06:34:46.141Z,1022.74
2022-10-06T06:35:46.208Z,1022.75
2022-10-06T06:36:46.192Z,1022.75
2022-10-06T06:37:46.224Z,1022.76
2022-10-06T06:38:46.248Z,1022.77
2022-10-06T06:39:46.270Z,1022.83
2022-10-06T06:40:46.298Z,1022.85
2022-10-06T06:41:46.323Z,1022.82
2022-10-06T06:42:49.226Z,1022.85
2022-10-06T06:43:46.374Z,1022.89
2022-10-06T06:44:46.401Z,1022.88
2022-10-06T06:45:46.528Z,1022.92
2022-10-06T06:46:46.453Z,1022.91
2022-10-06T06:47:46.479Z,1022.93
2022-10-06T06:48:46.507Z,1022.93
2022-10-06T06:49:46.531Z,1022.93
2022-10-06T06:50:46.760Z,1022.96
2022-10-06T06:51:46.601Z,1022.94
2022-10-06T06:52:46.612Z,1022.97
2022-10-06T06:53:46.635Z,1023.05
2022-10-06T06:54:46.661Z,1023.09
2022-10-06T06:55:46.686Z,1023.12
2022-10-06T06:56:46.719Z,1023.12
2022-10-06T06:57:46.738Z,1023.09
2022-10-06T06:58:46.767Z,1023.10
2022-10-06T06:59:46.790Z,1023.14
2022-10-06T07:00:46.818Z,1023.13
2022-10-06T07:01:46.917Z,1023.15
2022-10-06T07:02:46.869Z,1023.16
2022-10-06T07:04:01.804Z,1023.21
2022-10-06T07:04:46.921Z,1023.21
2022-10-06T07:05:46.949Z,1023.19
2022-10-06T07:06:46.974Z,1023.19
2022-10-06T07:07:47.019Z,1023.22
2022-10-06T07:08:47.026Z,1023.25
2022-10-06T07:09:47.050Z,1023.25
2022-10-06T07:10:47.078Z,1023.28
2022-10-06T07:11:47.102Z,1023.31
2022-10-06T07:12:47.131Z,1023.30
2022-10-06T07:13:47.157Z,1023.31
2022-10-06T07:14:47.183Z,1023.33
2022-10-06T07:15:47.254Z,1023.32
2022-10-06T07:16:47.235Z,1023.33
2022-10-06T07:17:47.261Z,1023.32
2022-10-06T07:18:47.289Z,1023.33
2022-10-06T07:19:47.317Z,1023.32
2022-10-06T07:20:47.341Z,1023.35
2022-10-06T07:21:47.366Z,1023.38
2022-10-06T07:22:47.392Z,1023.41
2022-10-06T07:23:47.437Z,1023.42
2022-10-06T07:24:47.446Z,1023.47
2022-10-06T07:25:47.473Z,1023.50
2022-10-06T07:26:47.497Z,1023.48
2022-10-06T07:27:47.523Z,1023.51
2022-10-06T07:28:47.551Z,1023.52
2022-10-06T07:29:47.576Z,1023.55
2022-10-06T07:30:47.603Z,1023.57
2022-10-06T07:31:47.641Z,1023.58
2022-10-06T07:32:47.656Z,1023.61
2022-10-06T07:33:47.732Z,1023.68
2022-10-06T07:34:47.711Z,1023.64
2022-10-06T07:35:47.736Z,1023.72
2022-10-06T07:36:47.764Z,1023.69
2022-10-06T07:37:47.787Z,1023.78
2022-10-06T07:38:47.814Z,1023.79
2022-10-06T07:39:47.858Z,1023.82
2022-10-06T07:41:07.644Z,1023.84
2022-10-06T07:41:47.895Z,1023.87
2022-10-06T07:42:47.920Z,1023.91
2022-10-06T07:43:47.944Z,1023.85
2022-10-06T07:44:47.973Z,1023.86
2022-10-06T07:45:48.038Z,1023.89
2022-10-06T07:46:48.026Z,1023.89
2022-10-06T07:47:48.052Z,1023.89
2022-10-06T07:48:48.081Z,1023.93
2022-10-06T07:49:48.107Z,1023.94
2022-10-06T07:50:48.153Z,1024.00
2022-10-06T07:51:48.158Z,1023.98
2022-10-06T07:52:48.187Z,1024.00
2022-10-06T07:53:48.210Z,1024.04
2022-10-06T07:54:48.239Z,1024.07
2022-10-06T07:55:48.285Z,1024.09
2022-10-06T07:56:48.292Z,1024.11
2022-10-06T07:57:48.320Z,1024.15
2022-10-06T07:58:48.345Z,1024.11
2022-10-06T07:59:48.370Z,1024.13
2022-10-06T08:00:48.406Z,1024.22
2022-10-06T08:01:48.445Z,1024.15
2022-10-06T08:02:48.507Z,1024.15
2022-10-06T08:03:48.477Z,1024.16
2022-10-06T08:04:48.507Z,1024.21
2022-10-06T08:05:48.534Z,1024.16
2022-10-06T08:06:48.560Z,1024.16
2022-10-06T08:07:48.596Z,1024.16
2022-10-06T08:08:52.636Z,1024.23
2022-10-06T08:09:48.641Z,1024.29
2022-10-06T08:10:48.674Z,1024.27
2022-10-06T08:11:48.711Z,1024.25
2022-10-06T08:12:48.729Z,1024.24
2022-10-06T08:13:48.755Z,1024.28
2022-10-06T08:14:48.777Z,1024.25
2022-10-06T08:15:48.840Z,1024.27
2022-10-06T08:16:48.832Z,1024.31
2022-10-06T08:17:48.859Z,1024.34
2022-10-06T08:18:48.886Z,1024.33
2022-10-06T08:19:48.913Z,1024.40
2022-10-06T08:20:48.942Z,1024.32
2022-10-06T08:21:48.971Z,1024.35
2022-10-06T08:22:48.995Z,1024.33
2022-10-06T08:23:49.022Z,1024.34
2022-10-06T08:25:08.248Z,1024.36
2022-10-06T08:25:49.078Z,1024.37
2022-10-06T08:26:49.105Z,1024.40
2022-10-06T08:27:53.408Z,1024.37
2022-10-06T08:28:49.160Z,1024.43
2022-10-06T08:29:49.186Z,1024.38
2022-10-06T08:30:49.216Z,1024.37
2022-10-06T08:31:49.343Z,1024.41
2022-10-06T08:32:49.271Z,1024.43
2022-10-06T08:33:49.299Z,1024.41
2022-10-06T08:34:49.326Z,1024.35
2022-10-06T08:35:49.353Z,1024.39
2022-10-06T08:37:08.745Z,1024.44
2022-10-06T08:37:49.417Z,1024.43
2022-10-06T08:38:49.437Z,1024.40
2022-10-06T08:39:49.464Z,1024.47
2022-10-06T08:40:49.492Z,1024.46
2022-10-06T08:41:49.519Z,1024.50
2022-10-06T08:42:49.549Z,1024.50
2022-10-06T08:43:49.688Z,1024.47
2022-10-06T08:44:49.606Z,1024.45
2022-10-06T08:45:49.779Z,1024.48
2022-10-06T08:46:49.667Z,1024.51
2022-10-06T08:47:49.687Z,1024.50
2022-10-06T08:48:49.717Z,1024.48
2022-10-06T08:49:49.743Z,1024.54
2022-10-06T08:50:49.772Z,1024.53
2022-10-06T08:51:49.799Z,1024.53
2022-10-06T08:52:49.830Z,1024.54
2022-10-06T08:53:49.861Z,1024.52
2022-10-06T08:54:49.896Z,1024.55
2022-10-06T08:55:49.914Z,1024.51
2022-10-06T08:56:49.942Z,1024.61
2022-10-06T08:57:49.970Z,1024.51
2022-10-06T08:58:49.998Z,1024.57
2022-10-06T08:59:50.048Z,1024.57
2022-10-06T09:00:50.058Z,1024.63
2022-10-06T09:01:50.241Z,1024.64
2022-10-06T09:02:50.310Z,1024.65
2022-10-06T09:03:50.141Z,1024.64
2022-10-06T09:04:50.172Z,1024.62
2022-10-06T09:05:50.197Z,1024.67
2022-10-06T09:06:50.229Z,1024.65
2022-10-06T09:07:50.257Z,1024.68
2022-10-06T09:08:50.286Z,1024.74
2022-10-06T09:09:50.314Z,1024.70
2022-10-06T09:10:50.345Z,1024.72
2022-10-06T09:11:50.375Z,1024.72
2022-10-06T09:12:50.403Z,1024.74
2022-10-06T09:13:50.432Z,1024.74
2022-10-06T09:14:50.463Z,1024.74
2022-10-06T09:15:50.550Z,1024.83
2022-10-06T09:16:50.524Z,1024.81
2022-10-06T09:17:50.702Z,1024.80
2022-10-06T09:19:07.736Z,1024.85
2022-10-06T09:19:50.608Z,1024.84
2022-10-06T09:20:50.640Z,1024.84
2022-10-06T09:21:50.672Z,1024.85
2022-10-06T09:22:50.698Z,1024.81
2022-10-06T09:23:50.738Z,1024.86
2022-10-06T09:24:50.759Z,1024.90
2022-10-06T09:25:50.788Z,1024.86
2022-10-06T09:26:50.818Z,1024.89
2022-10-06T09:27:50.847Z,1024.84
2022-10-06T09:28:50.878Z,1024.88
2022-10-06T09:29:50.910Z,1024.94
2022-10-06T09:30:55.197Z,1024.91
2022-10-06T09:31:51.396Z,1024.96
2022-10-06T09:32:50.997Z,1024.91
2022-10-06T09:33:51.026Z,1024.98
2022-10-06T09:34:51.056Z,1024.91
2022-10-06T09:35:51.093Z,1024.95
2022-10-06T09:36:51.116Z,1024.93
2022-10-06T09:37:51.145Z,1024.93
2022-10-06T09:38:51.173Z,1024.96
2022-10-06T09:39:51.201Z,1024.97
2022-10-06T09:40:51.283Z,1024.98
2022-10-06T09:41:51.262Z,1024.96
2022-10-06T09:42:51.292Z,1024.97
2022-10-06T09:43:51.322Z,1025.04
2022-10-06T09:44:51.353Z,1025.00
2022-10-06T09:45:51.379Z,1025.03
2022-10-06T09:46:51.408Z,1024.95
2022-10-06T09:47:51.457Z,1024.95
2022-10-06T09:48:51.467Z,1025.02
2022-10-06T09:49:51.495Z,1025.01
2022-10-06T09:50:51.525Z,1025.03
2022-10-06T09:51:51.554Z,1025.03
2022-10-06T09:52:51.584Z,1025.00
2022-10-06T09:53:51.611Z,1025.03
2022-10-06T09:54:51.641Z,1025.00
2022-10-06T09:55:51.670Z,1025.03
2022-10-06T09:56:51.701Z,1025.02
2022-10-06T09:57:51.738Z,1025.01
2022-10-06T09:58:51.758Z,1024.98
2022-10-06T09:59:51.785Z,1025.03
2022-10-06T10:00:51.933Z,1025.00
2022-10-06T10:01:51.843Z,1025.03
2022-10-06T10:02:51.946Z,1025.00
2022-10-06T10:04:15.553Z,1025.01
2022-10-06T10:04:51.930Z,1025.04
2022-10-06T10:05:51.959Z,1025.02
2022-10-06T10:06:51.986Z,1024.98
2022-10-06T10:07:52.014Z,1025.03
2022-10-06T10:08:52.046Z,1025.04
2022-10-06T10:09:52.073Z,1025.05
2022-10-06T10:10:52.102Z,1025.01
2022-10-06T10:11:52.130Z,1025.01
2022-10-06T10:12:52.164Z,1025.08
2022-10-06T10:13:52.187Z,1025.08
2022-10-06T10:14:52.216Z,1025.12
2022-10-06T10:15:52.333Z,1025.10
2022-10-06T10:16:53.395Z,1025.10
2022-10-06T10:17:52.303Z,1025.10
2022-10-06T10:18:52.333Z,1025.07
2022-10-06T10:19:52.381Z,1025.08
2022-10-06T10:20:52.390Z,1025.06
2022-10-06T10:21:52.418Z,1025.02
2022-10-06T10:22:52.450Z,1025.03
2022-10-06T10:23:52.475Z,1025.04
2022-10-06T10:24:52.507Z,1025.01
2022-10-06T10:25:52.533Z,1025.05
2022-10-06T10:26:52.564Z,1025.03
2022-10-06T10:27:52.590Z,1025.01
2022-10-06T10:28:52.624Z,1025.01
2022-10-06T10:29:52.647Z,1024.96
2022-10-06T10:30:52.677Z,1024.99
2022-10-06T10:31:52.789Z,1024.96
2022-10-06T10:32:52.738Z,1025.01
2022-10-06T10:34:05.133Z,1024.98
2022-10-06T10:34:52.792Z,1024.99
2022-10-06T10:35:52.938Z,1025.00
2022-10-06T10:36:52.951Z,1024.99
2022-10-06T10:37:52.928Z,1025.01
2022-10-06T10:38:52.907Z,1024.99
2022-10-06T10:39:52.935Z,1025.02
2022-10-06T10:40:52.965Z,1025.00
2022-10-06T10:42:55.595Z,1024.98
2022-10-06T10:43:55.621Z,1025.01
2022-10-06T10:44:56.068Z,1024.98
2022-10-06T10:45:55.691Z,1025.03
2022-10-06T10:46:55.813Z,1024.97
2022-10-06T10:47:55.737Z,1024.96
2022-10-06T10:48:55.763Z,1025.05
2022-10-06T10:49:55.795Z,1025.00
2022-10-06T10:52:13.474Z,1025.02
2022-10-06T10:53:13.570Z,1025.02
2022-10-06T10:54:13.516Z,1025.07
2022-10-06T10:55:13.581Z,1024.99
2022-10-06T10:56:13.574Z,1025.00
2022-10-06T10:57:13.605Z,1025.03
2022-10-06T10:58:13.631Z,1025.01
2022-10-06T10:59:13.661Z,1025.04
2022-10-06T11:00:13.888Z,1025.06
2022-10-06T11:01:13.759Z,1025.02
2022-10-06T11:02:13.815Z,1025.02
2022-10-06T11:03:13.780Z,1025.05
2022-10-06T11:04:16.426Z,1025.02
2022-10-06T11:05:13.836Z,1025.06
2022-10-06T11:06:13.864Z,1025.05
2022-10-06T11:07:13.894Z,1025.06
2022-10-06T11:08:13.941Z,1025.06
2022-10-06T11:09:13.950Z,1025.02
2022-10-06T11:10:13.978Z,1025.08
2022-10-06T11:11:14.010Z,1025.06
2022-10-06T11:12:14.041Z,1025.01
2022-10-06T11:13:14.104Z,1025.02
2022-10-06T11:14:14.094Z,1024.97
2022-10-06T11:15:14.125Z,1025.02
2022-10-06T11:16:14.191Z,1025.02
2022-10-06T11:17:14.181Z,1025.03
2022-10-06T11:18:17.133Z,1025.02
2022-10-06T11:19:14.241Z,1024.96
2022-10-06T11:20:14.267Z,1024.99
2022-10-06T11:21:14.297Z,1024.97
2022-10-06T11:22:14.324Z,1025.00
2022-10-06T11:23:14.354Z,1025.02
2022-10-06T11:24:14.401Z,1024.96
2022-10-06T11:25:14.414Z,1024.99
2022-10-06T11:26:14.438Z,1024.99
2022-10-06T11:27:14.471Z,1024.95
2022-10-06T11:28:14.526Z,1024.96
2022-10-06T11:29:14.531Z,1024.97
2022-10-06T11:30:14.554Z,1025.00
2022-10-06T11:31:17.655Z,1024.96
2022-10-06T11:32:14.612Z,1024.97
2022-10-06T11:33:14.642Z,1025.00
2022-10-06T11:34:14.671Z,1024.95
2022-10-06T11:35:14.701Z,1025.03
2022-10-06T11:36:14.729Z,1024.99
2022-10-06T11:37:14.759Z,1024.96
2022-10-06T11:38:14.786Z,1024.91
2022-10-06T11:39:14.817Z,1024.90
2022-10-06T11:40:14.861Z,1024.93
2022-10-06T11:41:14.874Z,1024.93
2022-10-06T11:42:14.902Z,1024.96
2022-10-06T11:43:14.939Z,1024.90
2022-10-06T11:44:14.959Z,1024.91
2022-10-06T11:45:15.020Z,1024.93
2022-10-06T11:46:15.107Z,1024.88
2022-10-06T11:47:15.057Z,1024.87
2022-10-06T11:48:15.074Z,1024.87
2022-10-06T11:49:15.106Z,1024.80
2022-10-06T11:50:15.133Z,1024.91
2022-10-06T11:51:15.165Z,1024.87
2022-10-06T11:52:15.192Z,1024.88
2022-10-06T11:53:15.221Z,1024.86
2022-10-06T11:54:15.248Z,1024.83
2022-10-06T11:55:15.280Z,1024.83
2022-10-06T11:56:15.324Z,1024.79
2022-10-06T11:57:15.337Z,1024.78
2022-10-06T11:58:41.964Z,1024.78
2022-10-06T11:59:15.401Z,1024.73
2022-10-06T12:00:15.422Z,1024.77
2022-10-06T12:01:15.452Z,1024.70
2022-10-06T12:02:15.586Z,1024.73
2022-10-06T12:03:15.561Z,1024.72
2022-10-06T12:04:16.920Z,1024.69
2022-10-06T12:05:52.382Z,1024.72
2022-10-06T12:06:15.596Z,1024.70
2022-10-06T12:07:15.625Z,1024.67
2022-10-06T12:08:15.655Z,1024.69